createdAt,value
2022-10-11T00:01:53.647Z,102608.16
2022-10-11T00:04:20.450Z,102606.00
2022-10-11T00:06:47.626Z,102605.59
2022-10-11T00:09:16.226Z,102609.41
2022-10-11T00:11:43.479Z,102603.84
2022-10-11T00:14:10.725Z,102616.19
2022-10-11T00:16:41.056Z,102610.22
2022-10-11T00:19:07.938Z,102613.22
2022-10-11T00:21:34.837Z,102604.84
2022-10-11T00:24:01.628Z,102612.81
2022-10-11T00:26:28.774Z,102609.88
2022-10-11T00:28:55.924Z,102613.88
2022-10-11T00:31:23.099Z,102617.44
2022-10-11T00:33:49.910Z,102616.84
2022-10-11T00:36:17.687Z,102614.47
2022-10-11T00:38:45.583Z,102619.88
2022-10-11T00:41:13.692Z,102622.84
2022-10-11T00:43:41.398Z,102625.66
2022-10-11T00:46:14.276Z,102627.25
2022-10-11T00:48:55.520Z,102629.84
2022-10-11T00:51:35.483Z,102633.63
2022-10-11T00:54:02.929Z,102628.66
2022-10-11T00:56:39.290Z,102637.63
2022-10-11T00:59:12.116Z,102636.25
2022-10-11T01:01:39.299Z,102641.81
2022-10-11T01:04:06.176Z,102638.63
2022-10-11T01:06:33.918Z,102654.00
2022-10-11T01:09:00.767Z,102655.22
2022-10-11T01:11:29.956Z,102649.41
2022-10-11T01:14:13.940Z,102655.00
2022-10-11T01:16:47.127Z,102655.00
2022-10-11T01:19:32.189Z,102654.22
2022-10-11T01:22:01.743Z,102651.81
2022-10-11T01:24:46.926Z,102660.56
2022-10-11T01:27:44.526Z,102653.81
2022-10-11T01:30:19.320Z,102659.97
2022-10-11T01:33:04.696Z,102657.59
2022-10-11T01:35:49.298Z,102660.56
2022-10-11T01:38:34.516Z,102663.34
2022-10-11T01:41:13.997Z,102663.56
2022-10-11T01:43:42.250Z,102669.75
2022-10-11T01:46:10.417Z,102664.75
2022-10-11T01:48:51.065Z,102664.38
2022-10-11T01:51:22.340Z,102668.97
2022-10-11T01:54:04.082Z,102668.31
2022-10-11T01:56:56.215Z,102666.16
2022-10-11T01:59:39.763Z,102667.53
2022-10-11T02:02:18.427Z,102669.34
2022-10-11T02:04:53.560Z,102668.75
2022-10-11T02:07:31.514Z,102662.97
2022-10-11T02:10:33.081Z,102676.09
2022-10-11T02:13:09.534Z,102673.09
2022-10-11T02:15:39.610Z,102666.53
2022-10-11T02:18:12.760Z,102672.50
2022-10-11T02:20:41.421Z,102660.97
2022-10-11T02:23:30.654Z,102663.56
2022-10-11T02:25:58.015Z,102668.53
2022-10-11T02:28:29.849Z,102665.34
2022-10-11T02:31:00.689Z,102670.94
2022-10-11T02:33:33.986Z,102665.16
2022-10-11T02:36:10.326Z,102669.72
2022-10-11T02:38:48.532Z,102675.69
2022-10-11T02:41:36.212Z,102671.72
2022-10-11T02:44:33.228Z,102673.28
2022-10-11T02:47:01.707Z,102682.06
2022-10-11T02:49:30.181Z,102684.06
2022-10-11T02:51:58.097Z,102679.84
2022-10-11T02:54:27.744Z,102682.84
2022-10-11T02:56:54.562Z,102685.44
2022-10-11T02:59:21.427Z,102682.25
2022-10-11T03:01:48.491Z,102683.22
2022-10-11T03:04:15.349Z,102686.63
2022-10-11T03:06:42.165Z,102685.03
2022-10-11T03:09:08.994Z,102696.16
2022-10-11T03:11:35.821Z,102685.03
2022-10-11T03:14:02.607Z,102682.44
2022-10-11T03:16:29.445Z,102685.81
2022-10-11T03:18:56.250Z,102686.84
2022-10-11T03:21:25.237Z,102684.84
2022-10-11T03:23:52.465Z,102689.19
2022-10-11T03:26:19.433Z,102683.22
2022-10-11T03:28:46.312Z,102680.03
2022-10-11T03:31:13.295Z,102690.41
2022-10-11T03:33:40.066Z,102694.97
2022-10-11T03:36:07.634Z,102701.16
2022-10-11T03:38:34.700Z,102693.16
2022-10-11T03:41:01.511Z,102696.16
2022-10-11T03:43:28.301Z,102698.75
2022-10-11T03:45:55.028Z,102698.75
2022-10-11T03:48:22.222Z,102702.31
2022-10-11T03:50:49.317Z,102706.88
2022-10-11T03:53:16.109Z,102718.25
2022-10-11T03:55:42.970Z,102720.00
2022-10-11T03:58:09.763Z,102715.03
2022-10-11T04:00:37.512Z,102719.41
2022-10-11T04:03:04.272Z,102716.63
2022-10-11T04:05:31.192Z,102719.41
2022-10-11T04:07:57.990Z,102720.00
2022-10-11T04:10:24.836Z,102721.81
2022-10-11T04:12:51.613Z,102717.03
2022-10-11T04:15:18.531Z,102720.00
2022-10-11T04:17:45.364Z,102715.78
2022-10-11T04:20:12.248Z,102720.19
2022-10-11T04:22:39.087Z,102722.16
2022-10-11T04:25:07.056Z,102720.16
2022-10-11T04:27:34.065Z,102725.72
2022-10-11T04:30:01.008Z,102726.72
2022-10-11T04:32:28.053Z,102729.31
2022-10-11T04:34:54.851Z,102734.03
2022-10-11T04:37:21.745Z,102732.25
2022-10-11T04:39:48.678Z,102739.03
2022-10-11T04:42:16.509Z,102744.22
2022-10-11T04:44:43.219Z,102746.19
2022-10-11T04:47:10.012Z,102747.16
2022-10-11T04:49:36.729Z,102741.81
2022-10-11T04:52:03.780Z,102744.22
2022-10-11T04:54:30.574Z,102753.53
2022-10-11T04:56:57.407Z,102753.53
2022-10-11T04:59:24.155Z,102746.78
2022-10-11T05:01:51.064Z,102748.38
2022-10-11T05:04:17.981Z,102751.56
2022-10-11T05:06:44.738Z,102762.91
2022-10-11T05:09:11.713Z,102758.34
2022-10-11T05:11:38.423Z,102760.75
2022-10-11T05:14:05.368Z,102756.38
2022-10-11T05:16:32.170Z,102757.94
2022-10-11T05:18:58.932Z,102754.38
2022-10-11T05:21:28.140Z,102756.97
2022-10-11T05:23:56.476Z,102759.56
2022-10-11T05:26:25.651Z,102752.41
2022-10-11T05:28:53.040Z,102759.75
2022-10-11T05:31:20.489Z,102764.94
2022-10-11T05:33:47.403Z,102775.28
2022-10-11T05:36:14.359Z,102773.69
2022-10-11T05:38:41.580Z,102772.69
2022-10-11T05:41:11.865Z,102772.69
2022-10-11T05:43:38.699Z,102775.88
2022-10-11T05:46:06.121Z,102770.72
2022-10-11T05:48:33.803Z,102773.13
2022-10-11T05:51:03.327Z,102771.13
2022-10-11T05:53:30.743Z,102777.13
2022-10-11T05:55:57.719Z,102771.94
2022-10-11T05:58:25.061Z,102784.88
2022-10-11T06:00:52.216Z,102789.25
2022-10-11T06:03:21.193Z,102784.47
2022-10-11T06:05:48.104Z,102784.66
2022-10-11T06:08:15.981Z,102790.63
2022-10-11T06:10:42.822Z,102789.44
2022-10-11T06:13:09.897Z,102791.03
2022-10-11T06:15:39.781Z,102789.66
2022-10-11T06:18:06.891Z,102793.03
2022-10-11T06:20:33.725Z,102801.41
2022-10-11T06:23:00.678Z,102801.22
2022-10-11T06:25:27.616Z,102807.00
2022-10-11T06:27:54.540Z,102805.00
2022-10-11T06:30:21.556Z,102808.03
2022-10-11T06:32:48.457Z,102811.81
2022-10-11T06:35:15.385Z,102816.41
2022-10-11T06:37:42.253Z,102814.22
2022-10-11T06:40:09.537Z,102819.81
2022-10-11T06:42:36.316Z,102821.03
2022-10-11T06:45:03.373Z,102816.88
2022-10-11T06:47:30.168Z,102825.84
2022-10-11T06:49:57.016Z,102831.47
2022-10-11T06:52:23.805Z,102822.91
2022-10-11T06:54:50.679Z,102833.50
2022-10-11T06:57:17.521Z,102831.50
2022-10-11T06:59:44.498Z,102833.09
2022-10-11T07:02:11.362Z,102847.22
2022-10-11T07:04:38.121Z,102844.25
2022-10-11T07:07:04.963Z,102843.84
2022-10-11T07:09:32.312Z,102847.47
2022-10-11T07:11:59.110Z,102855.22
2022-10-11T07:14:25.982Z,102849.47
2022-10-11T07:16:52.749Z,102848.88
2022-10-11T07:19:19.653Z,102851.69
2022-10-11T07:21:46.483Z,102850.88
2022-10-11T07:24:13.375Z,102851.47
2022-10-11T07:26:40.961Z,102854.66
2022-10-11T07:29:09.711Z,102862.22
2022-10-11T07:31:38.936Z,102860.66
2022-10-11T07:34:05.713Z,102861.03
2022-10-11T07:36:32.601Z,102864.19
2022-10-11T07:38:59.428Z,102865.97
2022-10-11T07:41:26.221Z,102870.97
2022-10-11T07:43:54.675Z,102868.16
2022-10-11T07:46:21.466Z,102863.50
2022-10-11T07:48:50.360Z,102866.91
2022-10-11T07:51:22.502Z,102866.47
2022-10-11T07:53:51.549Z,102870.84
2022-10-11T07:56:24.116Z,102874.03
2022-10-11T07:58:53.336Z,102876.81
2022-10-11T08:01:21.025Z,102876.81
2022-10-11T08:03:48.673Z,102882.41
2022-10-11T08:06:18.590Z,102878.97
2022-10-11T08:08:45.475Z,102885.09
2022-10-11T08:11:24.216Z,102887.09
2022-10-11T08:13:51.453Z,102892.66
2022-10-11T08:16:18.600Z,102894.41
2022-10-11T08:18:45.756Z,102900.16
2022-10-11T08:21:15.533Z,102900.47
2022-10-11T08:23:42.324Z,102898.44
2022-10-11T08:26:09.756Z,102909.16
2022-10-11T08:28:37.017Z,102899.88
2022-10-11T08:31:04.536Z,102908.59
2022-10-11T08:33:31.738Z,102905.69
2022-10-11T08:35:59.030Z,102906.38
2022-10-11T08:38:25.905Z,102912.66
2022-10-11T08:40:59.570Z,102906.09
2022-10-11T08:43:38.359Z,102912.75
2022-10-11T08:46:08.592Z,102909.50
2022-10-11T08:48:43.938Z,102915.63
2022-10-11T08:51:23.452Z,102914.66
2022-10-11T08:54:02.332Z,102918.75
2022-10-11T08:56:35.552Z,102918.81
2022-10-11T08:59:13.605Z,102914.94
2022-10-11T09:02:12.607Z,102913.16
2022-10-11T09:04:39.564Z,102927.25
2022-10-11T09:07:28.680Z,102914.25
2022-10-11T09:10:24.312Z,102919.72
2022-10-11T09:13:09.292Z,102916.38
2022-10-11T09:16:24.152Z,102921.63
2022-10-11T09:19:17.318Z,102925.59
2022-10-11T09:22:30.202Z,102914.16
2022-10-11T09:25:12.064Z,102928.25
2022-10-11T09:28:04.194Z,102920.84
2022-10-11T09:30:32.793Z,102927.34
2022-10-11T09:33:08.801Z,102925.25
2022-10-11T09:35:46.686Z,102923.13
2022-10-11T09:38:19.616Z,102928.06
2022-10-11T09:41:12.234Z,102928.03
2022-10-11T09:43:39.646Z,102921.81
2022-10-11T09:46:37.038Z,102933.03
2022-10-11T09:49:10.243Z,102930.38
2022-10-11T09:51:37.846Z,102932.34
2022-10-11T09:54:06.656Z,102931.06
2022-10-11T09:56:40.399Z,102932.81
2022-10-11T09:59:08.656Z,102925.13
2022-10-11T10:01:36.089Z,102925.84
2022-10-11T10:04:14.535Z,102930.78
2022-10-11T10:06:41.393Z,102928.47
2022-10-11T10:09:30.594Z,102928.75
2022-10-11T10:11:58.221Z,102929.75
2022-10-11T10:14:30.288Z,102930.84
2022-10-11T10:17:07.121Z,102927.78
2022-10-11T10:19:51.997Z,102926.31
2022-10-11T10:22:31.402Z,102922.38
2022-10-11T10:25:02.320Z,102922.97
2022-10-11T10:27:30.693Z,102926.72
2022-10-11T10:30:03.579Z,102918.81
2022-10-11T10:32:51.900Z,102914.31
2022-10-11T10:35:46.332Z,102916.59
2022-10-11T10:38:51.199Z,102922.03
2022-10-11T10:41:19.442Z,102914.50
2022-10-11T10:43:53.943Z,102917.47
2022-10-11T10:47:15.959Z,102928.81
2022-10-11T10:49:57.736Z,102920.16
2022-10-11T10:53:24.981Z,102916.81
2022-10-11T10:56:34.833Z,102917.38
2022-10-11T10:59:26.624Z,102910.00
2022-10-11T11:02:21.450Z,102913.16
2022-10-11T11:05:22.348Z,102911.56
2022-10-11T11:07:54.733Z,102910.47
2022-10-11T11:10:33.321Z,102912.53
2022-10-11T11:13:14.826Z,102909.81
2022-10-11T11:15:55.968Z,102906.09
2022-10-11T11:18:31.811Z,102906.34
2022-10-11T11:21:40.615Z,102903.81
2022-10-11T11:24:22.693Z,102903.25
2022-10-11T11:27:01.786Z,102902.06
2022-10-11T11:29:56.103Z,102904.53
2022-10-11T11:32:22.928Z,102895.13
2022-10-11T11:35:01.345Z,102893.06
2022-10-11T11:37:41.571Z,102898.31
2022-10-11T11:40:18.534Z,102894.44
2022-10-11T11:43:02.000Z,102895.78
2022-10-11T11:45:40.374Z,102889.47
2022-10-11T11:48:14.907Z,102888.97
2022-10-11T11:50:45.843Z,102891.06
2022-10-11T11:53:35.660Z,102886.34
2022-10-11T11:56:10.236Z,102882.91
2022-10-11T11:58:59.762Z,102877.63
2022-10-11T12:01:31.528Z,102881.34
2022-10-11T12:04:21.667Z,102877.66
2022-10-11T12:07:19.708Z,102876.84
2022-10-11T12:09:52.732Z,102867.91
2022-10-11T12:12:37.726Z,102872.88
2022-10-11T12:15:22.644Z,102873.44
2022-10-11T12:17:56.021Z,102868.94
2022-10-11T12:20:27.266Z,102868.84
2022-10-11T12:23:00.658Z,102871.66
2022-10-11T12:25:27.513Z,102871.78
2022-10-11T12:27:59.671Z,102859.53
2022-10-11T12:30:44.614Z,102851.75
2022-10-11T12:33:32.722Z,102857.38
2022-10-11T12:36:22.972Z,102849.06
2022-10-11T12:39:18.330Z,102838.38
2022-10-11T12:41:51.025Z,102836.63
2022-10-11T12:44:30.357Z,102834.38
2022-10-11T12:47:01.994Z,102842.78
2022-10-11T12:49:32.504Z,102840.50
2022-10-11T12:52:21.790Z,102834.66
2022-10-11T12:55:03.655Z,102841.53
2022-10-11T12:57:46.388Z,102836.94
2022-10-11T13:00:30.057Z,102835.94
2022-10-11T13:02:59.541Z,102839.72
2022-10-11T13:05:44.937Z,102842.09
2022-10-11T13:08:20.970Z,102834.69
2022-10-11T13:10:48.545Z,102835.88
2022-10-11T13:13:47.307Z,102836.63
2022-10-11T13:16:27.631Z,102822.00
2022-10-11T13:18:58.843Z,102828.88
2022-10-11T13:21:37.063Z,102828.66
2022-10-11T13:24:15.896Z,102827.19
2022-10-11T13:26:48.421Z,102830.97
2022-10-11T13:29:33.358Z,102827.75
2022-10-11T13:32:08.238Z,102833.47
2022-10-11T13:34:39.422Z,102825.16
2022-10-11T13:37:07.832Z,102818.47
2022-10-11T13:39:37.782Z,102818.66
2022-10-11T13:42:12.398Z,102820.91
2022-10-11T13:44:41.530Z,102815.44
2022-10-11T13:47:14.375Z,102811.00
2022-10-11T13:49:46.381Z,102819.50
2022-10-11T13:52:22.146Z,102817.72
2022-10-11T13:55:04.184Z,102820.69
2022-10-11T13:57:46.563Z,102820.19
2022-10-11T14:00:17.197Z,102818.63
2022-10-11T14:03:05.694Z,102818.09
2022-10-11T14:05:52.583Z,102818.16
2022-10-11T14:08:26.494Z,102812.63
2022-10-11T14:10:57.227Z,102819.22
2022-10-11T14:13:29.685Z,102807.13
2022-10-11T14:16:10.162Z,102813.97
2022-10-11T14:18:36.916Z,102808.16
2022-10-11T14:21:27.261Z,102812.88
2022-10-11T14:24:06.718Z,102804.84
2022-10-11T14:26:39.641Z,102800.47
2022-10-11T14:29:28.437Z,102803.22
2022-10-11T14:32:01.693Z,102798.56
2022-10-11T14:34:29.088Z,102799.53
2022-10-11T14:36:56.042Z,102803.91
2022-10-11T14:39:25.471Z,102803.00
2022-10-11T14:41:53.042Z,102792.88
2022-10-11T14:44:21.831Z,102797.09
2022-10-11T14:46:50.573Z,102789.53
2022-10-11T14:49:27.202Z,102796.59
2022-10-11T14:51:56.218Z,102796.03
2022-10-11T14:54:25.189Z,102795.25
2022-10-11T14:56:54.067Z,102796.66
2022-10-11T14:59:24.183Z,102790.66
2022-10-11T15:01:53.593Z,102794.69
2022-10-11T15:04:22.052Z,102797.59
2022-10-11T15:06:49.412Z,102794.75
2022-10-11T15:09:17.465Z,102791.66
2022-10-11T15:11:44.300Z,102794.16
2022-10-11T15:14:11.118Z,102791.59
2022-10-11T15:16:40.123Z,102790.03
2022-10-11T15:19:14.219Z,102794.56
2022-10-11T15:21:41.099Z,102789.91
2022-10-11T15:24:08.007Z,102795.31
2022-10-11T15:26:34.885Z,102789.56
2022-10-11T15:29:02.012Z,102783.59
2022-10-11T15:31:29.006Z,102789.16
2022-10-11T15:33:59.687Z,102794.47
2022-10-11T15:36:26.911Z,102780.78
2022-10-11T15:38:53.980Z,102782.91
2022-10-11T15:41:21.337Z,102778.72
2022-10-11T15:43:49.163Z,102777.69
2022-10-11T15:46:22.305Z,102783.72
2022-10-11T15:48:51.000Z,102782.44
2022-10-11T15:51:18.140Z,102779.34
2022-10-11T15:53:45.080Z,102781.97
2022-10-11T15:56:18.939Z,102774.09
2022-10-11T15:58:46.356Z,102770.19
2022-10-11T16:01:19.022Z,102773.63
2022-10-11T16:03:48.564Z,102764.16
2022-10-11T16:06:16.465Z,102767.88
2022-10-11T16:08:43.407Z,102764.22
2022-10-11T16:11:11.424Z,102758.44
2022-10-11T16:13:39.320Z,102762.38
2022-10-11T16:16:08.119Z,102761.59
2022-10-11T16:18:36.234Z,102767.13
2022-10-11T16:21:10.313Z,102768.16
2022-10-11T16:23:38.147Z,102764.22
2022-10-11T16:26:08.338Z,102776.31
2022-10-11T16:28:36.113Z,102768.16
2022-10-11T16:31:10.982Z,102769.19
2022-10-11T16:33:46.136Z,102775.22
2022-10-11T16:36:40.671Z,102764.94
2022-10-11T16:39:12.377Z,102769.91
2022-10-11T16:41:39.543Z,102776.44
2022-10-11T16:44:07.217Z,102781.38
2022-10-11T16:46:34.814Z,102773.91
2022-10-11T16:49:01.881Z,102785.69
2022-10-11T16:51:28.829Z,102780.91
2022-10-11T16:53:55.708Z,102782.69
2022-10-11T16:56:25.153Z,102781.56
2022-10-11T16:58:54.348Z,102786.72
2022-10-11T17:01:21.771Z,102781.41
2022-10-11T17:03:49.838Z,102783.44
2022-10-11T17:06:17.028Z,102773.66
2022-10-11T17:08:43.937Z,102770.72
2022-10-11T17:11:11.220Z,102779.56
2022-10-11T17:13:38.029Z,102781.06
2022-10-11T17:16:05.438Z,102789.91
2022-10-11T17:18:32.628Z,102785.13
2022-10-11T17:21:06.948Z,102779.28
2022-10-11T17:23:35.581Z,102782.34
2022-10-11T17:26:10.103Z,102786.97
2022-10-11T17:28:39.028Z,102789.78
2022-10-11T17:31:07.145Z,102784.97
2022-10-11T17:33:34.694Z,102784.13
2022-10-11T17:36:01.936Z,102788.72
2022-10-11T17:38:29.152Z,102784.47
2022-10-11T17:41:08.529Z,102777.59
2022-10-11T17:43:35.848Z,102793.25
2022-10-11T17:46:08.861Z,102798.41
2022-10-11T17:51:13.420Z,102792.25
2022-10-11T17:53:41.036Z,102786.69
2022-10-11T17:56:22.744Z,102787.16
2022-10-11T17:58:54.396Z,102788.94
2022-10-11T18:01:23.742Z,102792.25
2022-10-11T18:03:53.872Z,102786.72
2022-10-11T18:06:21.224Z,102790.84
2022-10-11T18:08:48.255Z,102782.94
2022-10-11T18:11:17.314Z,102793.06
2022-10-11T18:13:47.208Z,102790.13
2022-10-11T18:16:16.469Z,102788.78
2022-10-11T18:18:43.864Z,102789.53
2022-10-11T18:21:11.557Z,102786.03
2022-10-11T18:23:38.643Z,102790.69
2022-10-11T18:26:13.699Z,102788.56
2022-10-11T18:28:41.922Z,102786.44
2022-10-11T18:31:13.821Z,102789.28
2022-10-11T18:33:42.254Z,102787.94
2022-10-11T18:36:10.590Z,102793.88
2022-10-11T18:38:38.303Z,102794.34
2022-10-11T18:41:10.101Z,102792.44
2022-10-11T18:43:37.537Z,102787.66
2022-10-11T18:46:12.808Z,102787.81
2022-10-11T18:48:42.146Z,102788.53
2022-10-11T18:51:11.961Z,102792.63
2022-10-11T18:53:38.878Z,102786.28
2022-10-11T18:56:08.696Z,102784.59
2022-10-11T18:58:37.292Z,102785.78
2022-10-11T19:01:09.915Z,102784.88
2022-10-11T19:03:37.211Z,102776.94
2022-10-11T19:06:11.389Z,102782.31
2022-10-11T19:08:38.390Z,102784.03
2022-10-11T19:11:07.247Z,102784.97
2022-10-11T19:13:35.404Z,102785.88
2022-10-11T19:16:10.891Z,102782.03
2022-10-11T19:18:43.183Z,102777.75
2022-10-11T19:21:13.298Z,102774.00
2022-10-11T19:23:45.407Z,102768.69
2022-10-11T19:26:27.605Z,102773.81
2022-10-11T19:29:15.570Z,102770.53
2022-10-11T19:31:45.190Z,102770.97
2022-10-11T19:34:12.270Z,102767.03
2022-10-11T19:36:42.002Z,102772.13
2022-10-11T19:39:12.244Z,102770.78
2022-10-11T19:41:39.178Z,102764.44
2022-10-11T19:44:06.089Z,102767.94
2022-10-11T19:46:50.362Z,102773.03
2022-10-11T19:49:21.673Z,102765.13
2022-10-11T19:51:48.585Z,102763.19
2022-10-11T19:54:16.251Z,102768.06
2022-10-11T19:56:43.480Z,102761.16
2022-10-11T19:59:11.837Z,102763.41
2022-10-11T20:01:40.000Z,102759.66
2022-10-11T20:04:12.912Z,102760.34
2022-10-11T20:06:50.381Z,102756.38
2022-10-11T20:09:29.095Z,102756.03
2022-10-11T20:11:56.825Z,102758.50
2022-10-11T20:14:23.826Z,102756.34
2022-10-11T20:16:50.942Z,102768.22
2022-10-11T20:19:18.095Z,102766.53
2022-10-11T20:21:45.434Z,102760.19
2022-10-11T20:24:12.948Z,102770.03
2022-10-11T20:26:40.184Z,102766.28
2022-10-11T20:29:07.432Z,102774.53
2022-10-11T20:31:38.331Z,102769.19
2022-10-11T20:34:07.547Z,102769.84
2022-10-11T20:36:36.111Z,102766.09
2022-10-11T20:39:05.138Z,102769.59
2022-10-11T20:41:40.016Z,102759.84
2022-10-11T20:44:09.039Z,102773.28
2022-10-11T20:46:38.656Z,102768.50
2022-10-11T20:49:08.005Z,102768.97
2022-10-11T20:51:36.422Z,102761.00
2022-10-11T20:54:04.873Z,102774.28
2022-10-11T20:56:32.259Z,102771.53
2022-10-11T20:58:59.440Z,102774.78
2022-10-11T21:01:29.477Z,102764.00
2022-10-11T21:04:00.967Z,102765.47
2022-10-11T21:06:29.462Z,102762.50
2022-10-11T21:08:56.825Z,102762.94
2022-10-11T21:11:28.061Z,102759.78
2022-10-11T21:13:59.752Z,102768.00
2022-10-11T21:16:27.466Z,102768.44
2022-10-11T21:18:56.157Z,102761.06
2022-10-11T21:21:24.140Z,102766.69
2022-10-11T21:23:55.403Z,102765.31
2022-10-11T21:26:22.384Z,102759.75
2022-10-11T21:28:49.240Z,102764.38
2022-10-11T21:31:18.597Z,102766.06
2022-10-11T21:33:45.486Z,102766.28
2022-10-11T21:36:20.678Z,102764.91
2022-10-11T21:38:48.230Z,102768.97
2022-10-11T21:41:18.264Z,102769.94
2022-10-11T21:43:45.777Z,102769.16
2022-10-11T21:46:19.062Z,102769.38
2022-10-11T21:48:46.852Z,102769.38
2022-10-11T21:51:27.900Z,102765.41
2022-10-11T21:53:56.332Z,102768.59
2022-10-11T21:56:23.860Z,102769.38
2022-10-11T21:58:50.898Z,102770.97
2022-10-11T22:01:18.880Z,102769.75
2022-10-11T22:03:46.954Z,102764.53
2022-10-11T22:06:14.663Z,102774.38
2022-10-11T22:08:41.768Z,102773.34
2022-10-11T22:11:09.078Z,102771.31
2022-10-11T22:13:36.407Z,102767.72
2022-10-11T22:16:08.281Z,102771.31
2022-10-11T22:18:35.789Z,102771.31
2022-10-11T22:21:17.689Z,102770.13
2022-10-11T22:23:48.100Z,102760.28
2022-10-11T22:26:20.574Z,102757.44
2022-10-11T22:28:47.743Z,102762.66
2022-10-11T22:31:17.524Z,102765.50
2022-10-11T22:36:13.492Z,102758.09
2022-10-11T22:38:41.664Z,102760.72
2022-10-11T22:41:08.824Z,102756.28
2022-10-11T22:43:35.979Z,102767.28
2022-10-11T22:46:02.976Z,102759.72
2022-10-11T22:48:30.144Z,102755.50
2022-10-11T22:50:57.057Z,102756.53
2022-10-11T22:53:23.829Z,102752.53
2022-10-11T22:55:51.106Z,102759.91
2022-10-11T22:58:17.918Z,102764.09
2022-10-11T23:00:44.657Z,102752.91
2022-10-11T23:03:15.750Z,102755.50
2022-10-11T23:05:43.016Z,102758.91
2022-10-11T23:08:10.302Z,102758.31
2022-10-11T23:10:40.402Z,102754.94
2022-10-11T23:13:07.631Z,102752.53
2022-10-11T23:15:34.781Z,102753.34
2022-10-11T23:18:01.611Z,102748.34
2022-10-11T23:20:28.485Z,102749.16
2022-10-11T23:22:55.285Z,102743.38
2022-10-11T23:25:22.098Z,102754.19
2022-10-11T23:27:50.239Z,102744.03
2022-10-11T23:30:17.042Z,102743.44
2022-10-11T23:32:43.850Z,102737.88
2022-10-11T23:35:10.580Z,102732.88
2022-10-11T23:37:37.680Z,102735.47
2022-10-11T23:40:05.219Z,102734.69
2022-10-11T23:42:31.911Z,102728.13
2022-10-11T23:44:58.682Z,102729.91
2022-10-11T23:47:25.454Z,102730.72
2022-10-11T23:49:52.879Z,102737.94
2022-10-11T23:52:19.642Z,102737.94
2022-10-11T23:54:46.452Z,102734.78
2022-10-11T23:57:13.383Z,102735.19
2022-10-11T23:59:40.228Z,102730.63
